Time;durP1;ratioP1;P1;durP2;ratioP2;P2;SDS_P1;SDS_P2;PMS_P1;PMS_P2;Temp;Humidity;BMP_temperature;BMP_pressure;BME280_temperature;BME280_humidity;BME280_pressure;Samples;Min_cycle;Max_cycle;Signal;HPM_P1;HPM_P2
2020/12/16 00:00:10;;;;;;;26.67;15.13;;;;;;;2.86;77.46;101540.53;5068872;28;20020;-69
2020/12/16 00:02:39;;;;;;;30.77;17.13;;;;;;;2.89;77.69;101542.44;5069186;28;20025;-70
2020/12/16 00:05:07;;;;;;;25.87;15.07;;;;;;;2.86;77.50;101538.00;5069850;28;20486;-71
2020/12/16 00:07:33;;;;;;;28.57;16.13;;;;;;;2.94;77.73;101561.63;5070233;28;20074;-70
2020/12/16 00:09:59;;;;;;;26.73;14.53;;;;;;;2.98;77.88;101556.00;5073674;28;20443;-70
2020/12/16 00:12:25;;;;;;;23.90;14.13;;;;;;;2.95;77.49;101548.06;5073746;28;20025;-68
2020/12/16 00:14:51;;;;;;;26.67;14.87;;;;;;;2.98;77.50;101558.56;5074065;28;20027;-71
2020/12/16 00:17:16;;;;;;;24.67;13.87;;;;;;;2.76;78.07;101566.03;5067040;28;20418;-72
2020/12/16 00:19:42;;;;;;;29.30;13.70;;;;;;;2.71;78.20;101568.16;5066753;28;20024;-71
2020/12/16 00:22:08;;;;;;;26.10;13.20;;;;;;;2.82;77.36;101560.56;5065711;28;20031;-72
2020/12/16 00:24:33;;;;;;;24.77;14.40;;;;;;;2.89;77.07;101558.66;5053667;28;20120;-72
2020/12/16 00:26:58;;;;;;;25.60;14.80;;;;;;;2.99;76.99;101560.34;5054225;28;20024;-72
2020/12/16 00:29:24;;;;;;;28.97;16.73;;;;;;;2.75;76.76;101538.72;5054436;28;20040;-71
2020/12/16 00:31:50;;;;;;;25.80;14.33;;;;;;;2.73;76.85;101559.00;5038098;28;20082;-71
2020/12/16 00:34:15;;;;;;;31.40;15.23;;;;;;;2.82;77.06;101568.22;5054828;28;20411;-77
2020/12/16 00:36:41;;;;;;;32.07;16.73;;;;;;;2.68;77.10;101567.00;5055760;28;20111;-73
2020/12/16 00:39:09;;;;;;;29.73;14.67;;;;;;;2.73;77.47;101571.75;5054712;28;20021;-73
2020/12/16 00:41:35;;;;;;;30.57;16.10;;;;;;;2.76;77.56;101566.03;5039447;28;20028;-72
2020/12/16 00:44:01;;;;;;;27.63;15.50;;;;;;;2.85;77.03;101582.09;5055891;28;20083;-73
2020/12/16 00:46:27;;;;;;;34.17;16.83;;;;;;;2.84;76.64;101570.13;5053604;28;20025;-72
2020/12/16 00:48:53;;;;;;;25.73;15.20;;;;;;;2.74;77.04;101575.19;5053648;28;20413;-73
2020/12/16 00:51:18;;;;;;;26.50;15.10;;;;;;;2.73;76.92;101566.66;5053782;28;20527;-71
2020/12/16 00:53:44;;;;;;;28.23;14.63;;;;;;;2.58;77.06;101543.28;5060346;28;20037;-72
2020/12/16 00:56:10;;;;;;;30.73;16.33;;;;;;;2.66;77.25;101564.34;5053548;28;20426;-75
2020/12/16 00:58:36;;;;;;;28.00;15.73;;;;;;;2.66;77.06;101564.34;5053848;28;20029;-73
2020/12/16 01:01:02;;;;;;;29.67;17.03;;;;;;;2.68;77.32;101562.81;5057114;28;20032;-72
2020/12/16 01:03:28;;;;;;;28.90;15.53;;;;;;;2.69;76.91;101563.69;5055277;28;20025;-71
2020/12/16 01:05:53;;;;;;;36.57;19.37;;;;;;;2.53;76.54;101533.44;5056407;28;20467;-72
2020/12/16 01:08:19;;;;;;;29.47;17.10;;;;;;;2.57;76.81;101559.34;5055257;28;20480;-71
2020/12/16 01:10:45;;;;;;;32.53;16.77;;;;;;;2.63;76.63;101571.72;5056545;28;20067;-71
2020/12/16 01:13:11;;;;;;;29.50;17.00;;;;;;;2.68;77.13;101579.75;5055968;28;20020;-71
2020/12/16 01:15:36;;;;;;;31.23;16.00;;;;;;;2.74;76.49;101581.19;5037842;28;20029;-74
2020/12/16 01:18:02;;;;;;;25.00;14.63;;;;;;;2.49;77.44;101582.38;5054606;28;20028;-70
2020/12/16 01:20:27;;;;;;;25.03;14.87;;;;;;;2.37;78.13;101585.63;5054215;28;20090;-73
2020/12/16 01:22:52;;;;;;;24.60;15.50;;;;;;;2.35;77.37;101582.06;5055884;28;20171;-72
2020/12/16 01:25:20;;;;;;;25.80;15.37;;;;;;;2.11;78.03;101583.34;5054174;28;20048;-69
2020/12/16 01:27:59;;;;;;;30.93;16.13;;;;;;;1.91;79.83;101594.31;5054032;28;20028;-71
2020/12/16 01:30:25;;;;;;;26.30;16.10;;;;;;;1.97;78.74;101587.22;5053006;28;20155;-67
2020/12/16 01:32:52;;;;;;;23.97;15.17;;;;;;;1.93;78.10;101554.56;5055552;28;20059;-72
2020/12/16 01:35:18;;;;;;;31.23;18.50;;;;;;;2.07;78.21;101582.16;5054794;28;20100;-71
2020/12/16 01:37:43;;;;;;;24.43;15.13;;;;;;;2.10;78.04;101582.44;5053623;28;20458;-72
2020/12/16 01:40:10;;;;;;;26.50;16.73;;;;;;;2.19;77.62;101581.47;5056721;28;20100;-70
2020/12/16 01:42:37;;;;;;;39.80;20.90;;;;;;;2.21;76.90;101582.50;5035191;28;20059;-72
2020/12/16 01:45:11;;;;;;;28.07;14.93;;;;;;;2.13;77.05;101578.38;5053398;28;20083;-69
2020/12/16 01:47:37;;;;;;;30.80;15.20;;;;;;;1.87;77.07;101560.03;5052165;28;20493;-72
2020/12/16 01:50:05;;;;;;;25.53;14.33;;;;;;;1.87;77.10;101580.41;5054121;28;20017;-71
2020/12/16 01:52:32;;;;;;;28.37;15.83;;;;;;;1.83;77.87;101585.06;5055621;28;20059;-72
2020/12/16 01:55:00;;;;;;;23.80;13.83;;;;;;;1.73;77.93;101574.06;5053212;28;20094;-71
2020/12/16 01:57:26;;;;;;;25.20;14.27;;;;;;;1.77;77.91;101586.31;5054658;28;20475;-69
2020/12/16 01:59:52;;;;;;;22.90;13.87;;;;;;;1.66;77.90;101574.25;5035202;28;20017;-69
2020/12/16 02:02:19;;;;;;;22.03;13.37;;;;;;;1.82;78.04;101585.81;5052880;28;20394;-69
2020/12/16 02:04:48;;;;;;;22.70;14.00;;;;;;;1.81;77.76;101584.03;5055092;28;20526;-70
2020/12/16 02:07:15;;;;;;;27.08;14.88;;;;;;;1.87;77.84;101588.03;5059936;28;20040;-71
2020/12/16 02:09:46;;;;;;;30.20;15.13;;;;;;;1.88;77.51;101577.09;5052070;28;20024;-70
2020/12/16 02:12:16;;;;;;;24.90;14.10;;;;;;;1.91;77.88;101589.22;5055514;28;20108;-69
2020/12/16 02:14:42;;;;;;;23.47;13.17;;;;;;;1.66;77.17;101542.81;5054688;28;20053;-72
2020/12/16 02:17:08;;;;;;;28.03;14.20;;;;;;;1.63;77.30;101551.06;5054096;28;20024;-71
2020/12/16 02:19:58;;;;;;;24.50;14.20;;;;;;;1.85;77.84;101597.19;5054525;28;20117;-74
2020/12/16 02:22:24;;;;;;;21.73;13.15;;;;;;;1.82;77.61;101596.00;4987359;28;20548;-72
2020/12/16 02:24:57;;;;;;;26.00;14.73;;;;;;;1.84;77.52;101597.94;4970804;28;20042;-69
2020/12/16 02:27:22;;;;;;;23.07;14.27;;;;;;;1.94;77.68;101594.56;4970396;28;20042;-71
2020/12/16 02:29:48;;;;;;;21.87;13.27;;;;;;;1.78;77.22;101571.91;4975031;28;20037;-74
2020/12/16 02:32:14;;;;;;;29.50;16.10;;;;;;;1.95;77.05;101598.91;4971334;28;20026;-73
2020/12/16 02:34:40;;;;;;;26.73;14.57;;;;;;;1.93;76.86;101592.75;4973014;28;20137;-72
2020/12/16 02:37:05;;;;;;;26.23;15.00;;;;;;;1.72;77.06;101563.72;4969232;28;20048;-71
2020/12/16 02:39:31;;;;;;;26.27;14.23;;;;;;;1.77;77.52;101595.59;4972533;28;20043;-70
2020/12/16 02:42:04;;;;;;;23.60;13.43;;;;;;;1.49;78.31;101590.53;4975144;28;20040;-69
2020/12/16 02:44:29;;;;;;;26.27;14.73;;;;;;;1.63;79.08;101598.53;4972062;28;20110;-71
2020/12/16 02:46:59;;;;;;;25.23;14.53;;;;;;;1.29;79.98;101599.75;4973217;28;20294;-71
2020/12/16 02:49:25;;;;;;;;;;;;;;;1.03;81.13;101607.53;4971957;28;20030;-72
2020/12/16 02:51:51;;;;;;;24.40;13.03;;;;;;;0.76;82.47;101596.56;4970575;28;20464;-71
2020/12/16 02:54:16;;;;;;;24.97;13.73;;;;;;;1.07;82.27;101611.25;4973664;28;20058;-74
2020/12/16 02:56:53;;;;;;;21.80;13.63;;;;;;;1.35;80.57;101609.63;4988038;28;20054;-69
2020/12/16 02:59:26;;;;;;;25.33;14.70;;;;;;;1.37;80.08;101594.50;5015122;28;20040;-69
2020/12/16 03:01:54;;;;;;;26.90;14.73;;;;;;;1.33;79.59;101569.53;5055563;28;20029;-71
2020/12/16 03:04:21;;;;;;;30.63;15.67;;;;;;;1.53;79.53;101601.91;5052974;28;20032;-72
2020/12/16 03:06:48;;;;;;;30.00;17.03;;;;;;;1.41;79.13;101576.25;5053298;28;20036;-71
2020/12/16 03:09:15;;;;;;;31.40;17.20;;;;;;;1.65;78.72;101597.91;5052389;28;20418;-71
2020/12/16 03:11:41;;;;;;;34.27;19.67;;;;;;;1.80;78.56;101610.28;5052746;28;20025;-74
2020/12/16 03:14:06;;;;;;;32.10;17.83;;;;;;;1.70;78.03;101590.72;5050402;28;20119;-69
2020/12/16 03:16:32;;;;;;;27.50;16.73;;;;;;;1.75;77.78;101610.72;5052759;28;20028;-68
2020/12/16 03:18:57;;;;;;;26.63;16.07;;;;;;;1.43;78.87;101613.78;5051466;28;20083;-71
2020/12/16 03:21:24;;;;;;;27.33;16.00;;;;;;;1.26;80.00;101613.88;5053640;28;20497;-73
2020/12/16 03:23:53;;;;;;;37.80;23.33;;;;;;;0.90;80.42;101559.72;5071419;28;20052;-71
2020/12/16 03:26:19;;;;;;;48.63;27.27;;;;;;;1.24;80.56;101603.53;5053066;28;20033;-74
2020/12/16 03:28:45;;;;;;;37.40;23.83;;;;;;;1.18;81.20;101620.78;5071177;28;20039;-73
2020/12/16 03:31:12;;;;;;;33.27;20.60;;;;;;;0.90;82.27;101619.88;5053270;28;20056;-74
2020/12/16 03:33:40;;;;;;;30.33;18.17;;;;;;;0.90;83.06;101608.03;5070802;28;20047;-72
2020/12/16 03:36:05;;;;;;;29.47;18.20;;;;;;;1.06;82.17;101618.00;5071036;28;20046;-74
2020/12/16 03:38:31;;;;;;;31.87;18.27;;;;;;;1.29;81.67;101622.66;5044584;28;20116;-74
2020/12/16 03:40:57;;;;;;;30.00;17.67;;;;;;;1.45;81.06;101616.47;5071248;28;21623;-72
2020/12/16 03:43:23;;;;;;;26.43;14.60;;;;;;;1.55;79.90;101615.66;5068225;28;20025;-73
2020/12/16 03:45:49;;;;;;;26.47;16.37;;;;;;;1.41;80.15;101622.91;5070933;28;20031;-75
2020/12/16 03:48:15;;;;;;;24.63;14.47;;;;;;;1.47;80.14;101626.78;5071040;28;20459;-72
2020/12/16 03:50:41;;;;;;;26.63;15.63;;;;;;;1.60;79.71;101633.13;5071050;28;20031;-71
2020/12/16 03:53:06;;;;;;;21.60;13.50;;;;;;;1.55;80.22;101630.94;5071285;28;20031;-70
2020/12/16 03:55:31;;;;;;;24.03;14.73;;;;;;;1.55;80.59;101625.84;5052966;28;20029;-72
2020/12/16 03:57:57;;;;;;;21.40;13.77;;;;;;;1.71;79.92;101626.47;5051233;28;20036;-74
2020/12/16 04:00:22;;;;;;;26.50;15.13;;;;;;;1.88;79.51;101637.31;5070640;28;20429;-73
2020/12/16 04:02:48;;;;;;;26.27;13.97;;;;;;;1.98;78.88;101634.84;5070348;28;20478;-71
2020/12/16 04:05:13;;;;;;;23.87;14.30;;;;;;;1.67;78.68;101592.97;5070338;28;20082;-71
2020/12/16 04:07:39;;;;;;;23.43;13.87;;;;;;;1.75;79.55;101614.94;5052276;28;20083;-73
2020/12/16 04:10:04;;;;;;;26.73;14.57;;;;;;;1.80;79.75;101630.63;5070437;28;20020;-73
2020/12/16 04:12:30;;;;;;;26.70;15.13;;;;;;;1.72;80.56;101637.56;5070163;28;20021;-73
2020/12/16 04:14:55;;;;;;;30.73;16.33;;;;;;;1.41;81.75;101592.38;5052207;28;20029;-73
2020/12/16 04:17:21;;;;;;;28.50;15.13;;;;;;;1.61;81.98;101632.38;5066211;28;20035;-73
2020/12/16 04:19:46;;;;;;;29.13;15.37;;;;;;;1.58;82.73;101631.19;5053300;28;20037;-74
2020/12/16 04:22:11;;;;;;;26.73;15.20;;;;;;;1.49;82.63;101594.75;5069577;28;20036;-72
2020/12/16 04:24:37;;;;;;;24.70;14.30;;;;;;;1.66;82.34;101645.53;5070165;28;20059;-72
2020/12/16 04:27:02;;;;;;;27.83;14.47;;;;;;;1.72;81.98;101647.72;5070090;28;20111;-71
2020/12/16 04:29:28;;;;;;;28.93;15.97;;;;;;;1.66;82.42;101643.00;5070300;28;20037;-69
2020/12/16 04:31:53;;;;;;;26.20;14.83;;;;;;;1.68;82.58;101641.47;5052003;28;20044;-73
2020/12/16 04:34:19;;;;;;;26.83;15.57;;;;;;;1.89;81.81;101649.28;5070154;28;20054;-69
2020/12/16 04:36:51;;;;;;;29.83;15.77;;;;;;;2.02;81.42;101661.47;5062636;28;20055;-69
2020/12/16 04:39:18;;;;;;;29.80;17.07;;;;;;;1.87;80.81;101622.78;5069973;28;20112;-72
2020/12/16 04:41:44;;;;;;;27.90;15.77;;;;;;;2.08;80.37;101650.19;5052649;28;20466;-72
2020/12/16 04:44:12;;;;;;;25.67;15.27;;;;;;;2.18;79.96;101662.13;5070717;28;20039;-71
2020/12/16 04:46:40;;;;;;;31.23;15.50;;;;;;;2.01;79.78;101629.13;5070921;28;20028;-73
2020/12/16 04:49:07;;;;;;;38.00;19.87;;;;;;;2.22;80.19;101659.06;5071000;28;20029;-70
2020/12/16 04:51:34;;;;;;;29.90;15.87;;;;;;;2.29;80.39;101665.59;5070502;28;20151;-74
2020/12/16 04:54:00;;;;;;;31.63;17.07;;;;;;;2.28;80.00;101662.91;5070550;28;20033;-73
2020/12/16 04:56:26;;;;;;;28.90;16.53;;;;;;;2.29;79.83;101668.16;5056334;28;20032;-74
2020/12/16 04:58:54;;;;;;;37.90;17.10;;;;;;;2.23;79.96;101660.88;5074526;28;20734;-71
2020/12/16 05:01:19;;;;;;;27.53;15.70;;;;;;;2.23;80.37;101667.59;5074329;28;20380;-71
2020/12/16 05:03:44;;;;;;;30.73;17.30;;;;;;;2.12;80.77;101674.28;5074453;28;20039;-73
2020/12/16 05:06:10;;;;;;;36.20;19.67;;;;;;;2.16;80.80;101666.16;5074388;28;20406;-73
2020/12/16 05:08:35;;;;;;;28.73;16.43;;;;;;;1.96;80.92;101626.16;5055628;28;20119;-72
2020/12/16 05:11:01;;;;;;;30.87;17.97;;;;;;;2.25;80.83;101666.09;5056437;28;20036;-74
2020/12/16 05:13:27;;;;;;;34.23;19.10;;;;;;;2.28;80.98;101655.28;5072258;28;20449;-74
2020/12/16 05:15:53;;;;;;;28.87;16.20;;;;;;;2.42;80.89;101668.50;5068549;28;20028;-77
2020/12/16 05:18:19;;;;;;;25.97;15.87;;;;;;;2.52;80.56;101671.88;5073824;28;20111;-74
2020/12/16 05:21:00;;;;;;;25.53;15.63;;;;;;;2.65;80.63;101682.38;5055147;28;20025;-74
2020/12/16 05:23:31;;;;;;;217.93;87.97;;;;;;;2.66;80.96;101666.31;5074105;28;20035;-75
2020/12/16 05:26:02;;;;;;;46.07;24.90;;;;;;;2.79;81.15;101683.63;5073999;28;20090;-71
2020/12/16 05:28:33;;;;;;;54.57;28.63;;;;;;;2.88;80.86;101671.66;5065173;28;20032;-70
2020/12/16 05:31:01;;;;;;;33.53;16.10;;;;;;;2.83;80.92;101674.56;5053831;28;20037;-72
2020/12/16 05:33:26;;;;;;;40.67;17.63;;;;;;;2.98;81.88;101683.56;5052626;28;20091;-73
2020/12/16 05:35:54;;;;;;;44.27;17.43;;;;;;;2.89;81.31;101685.28;5053886;28;20057;-75
2020/12/16 05:38:20;;;;;;;28.70;16.40;;;;;;;2.86;81.39;101679.94;5053546;28;20052;-77
2020/12/16 05:40:45;;;;;;;29.57;17.13;;;;;;;2.82;81.51;101671.13;5053614;28;20057;-70
2020/12/16 05:43:21;;;;;;;30.73;16.47;;;;;;;2.46;82.99;101676.44;5053667;28;20103;-71
2020/12/16 05:45:47;;;;;;;36.60;18.23;;;;;;;2.17;85.07;101673.06;5053618;28;20451;-72
2020/12/16 05:48:13;;;;;;;34.57;19.50;;;;;;;1.99;86.22;101653.56;5053260;28;20025;-72
2020/12/16 05:50:44;;;;;;;37.03;18.10;;;;;;;2.00;86.81;101679.16;5035556;28;20545;-71
2020/12/16 05:53:20;;;;;;;36.77;19.67;;;;;;;2.15;87.51;101681.31;5053493;28;20032;-76
2020/12/16 05:56:02;;;;;;;34.60;21.30;;;;;;;2.06;86.52;101678.84;5052966;28;20072;-70
2020/12/16 05:58:32;;;;;;;34.63;19.67;;;;;;;1.77;85.13;101657.59;5053249;28;20069;-73
2020/12/16 06:00:59;;;;;;;42.07;21.50;;;;;;;1.68;85.66;101653.31;5053169;28;20037;-76
2020/12/16 06:03:52;;;;;;;42.33;20.43;;;;;;;1.83;87.21;101697.97;5053301;28;20029;-73
2020/12/16 06:06:17;;;;;;;36.87;19.43;;;;;;;1.85;88.29;101701.56;5029385;28;20492;-75
2020/12/16 06:08:44;;;;;;;33.70;20.57;;;;;;;2.07;87.04;101712.09;5030588;28;20048;-73
2020/12/16 06:11:11;;;;;;;29.53;17.30;;;;;;;2.06;87.14;101699.22;5030341;28;20050;-71
2020/12/16 06:13:38;;;;;;;33.63;18.90;;;;;;;2.05;86.36;101705.94;5030755;28;20053;-76
2020/12/16 06:16:07;;;;;;;28.93;16.87;;;;;;;1.90;87.12;101679.09;5030842;28;20041;-74
2020/12/16 06:18:38;;;;;;;32.00;18.60;;;;;;;2.00;87.71;101709.72;5030639;28;20041;-74
2020/12/16 06:21:06;;;;;;;34.20;18.43;;;;;;;2.00;86.83;101706.28;5030515;28;20159;-74
2020/12/16 06:23:37;;;;;;;37.57;17.57;;;;;;;2.00;84.80;101719.03;5030028;28;20038;-73
2020/12/16 06:26:05;;;;;;;26.97;16.40;;;;;;;2.08;84.04;101721.53;5014170;28;20039;-74
2020/12/16 06:28:31;;;;;;;32.30;16.23;;;;;;;2.21;83.57;101715.00;5030446;28;20037;-71
2020/12/16 06:31:26;;;;;;;35.13;17.53;;;;;;;2.24;82.84;101715.25;5030292;28;20034;-74
2020/12/16 06:34:12;;;;;;;35.87;17.87;;;;;;;2.31;82.15;101720.16;5015180;28;20216;-74
2020/12/16 06:36:39;;;;;;;36.30;16.67;;;;;;;2.15;82.29;101714.44;5028987;28;20124;-70
2020/12/16 06:39:15;;;;;;;36.00;17.13;;;;;;;2.18;82.49;101728.34;5025513;28;20467;-77
2020/12/16 06:41:55;;;;;;;31.03;16.87;;;;;;;2.18;82.28;101725.81;5029473;28;20059;-74
2020/12/16 06:44:21;;;;;;;29.07;16.13;;;;;;;1.80;83.84;101741.00;5018275;28;20128;-70
2020/12/16 06:46:50;;;;;;;35.20;17.83;;;;;;;1.60;85.11;101736.59;5029372;28;20480;-73
2020/12/16 06:49:25;;;;;;;32.13;17.50;;;;;;;1.58;85.60;101751.75;5029957;28;20044;-73
2020/12/16 06:52:03;;;;;;;34.63;17.17;;;;;;;1.80;85.45;101743.56;5029518;28;20103;-75
2020/12/16 06:54:37;;;;;;;34.50;22.20;;;;;;;1.93;85.41;101743.94;5029754;28;20071;-74
2020/12/16 06:57:32;;;;;;;36.23;21.57;;;;;;;2.00;84.74;101755.56;5029383;28;20538;-72
2020/12/16 06:59:59;;;;;;;33.90;17.60;;;;;;;2.06;85.22;101745.94;4932450;29;20036;-71
2020/12/16 07:02:27;;;;;;;31.80;18.60;;;;;;;2.07;85.03;101755.38;4916701;29;20114;-70
2020/12/16 07:04:53;;;;;;;43.07;27.40;;;;;;;2.11;84.86;101754.03;4916552;29;20043;-76
2020/12/16 07:07:42;;;;;;;40.30;25.50;;;;;;;2.02;86.17;101760.81;4932375;29;20041;-73
2020/12/16 07:10:35;;;;;;;38.70;23.67;;;;;;;2.09;86.59;101758.06;4916890;29;20422;-77
2020/12/16 07:13:23;;;;;;;38.87;24.10;;;;;;;1.97;86.35;101721.28;4951504;29;20035;-74
2020/12/16 07:16:01;;;;;;;36.97;24.17;;;;;;;2.13;86.74;101767.81;4951244;28;20457;-74
2020/12/16 07:18:40;;;;;;;43.47;22.30;;;;;;;1.95;87.65;101764.44;4963195;28;20114;-74
2020/12/16 07:21:17;;;;;;;36.10;20.80;;;;;;;2.14;87.93;101771.25;4950004;28;20023;-74
2020/12/16 07:24:03;;;;;;;38.17;20.03;;;;;;;1.94;87.07;101697.34;4950483;29;20421;-72
2020/12/16 07:26:55;;;;;;;37.17;21.80;;;;;;;2.28;87.00;101768.31;4950137;29;20046;-72
2020/12/16 07:29:24;;;;;;;48.20;27.67;;;;;;;2.30;86.95;101771.00;4961426;28;20105;-72
2020/12/16 07:31:58;;;;;;;47.67;32.45;;;;;;;2.46;86.41;101775.84;4967398;28;20497;-72
2020/12/16 07:34:29;;;;;;;38.17;23.03;;;;;;;2.42;85.67;101762.78;4966152;28;20528;-72
2020/12/16 07:37:00;;;;;;;32.63;19.87;;;;;;;2.42;86.67;101764.47;5032853;28;20032;-72
2020/12/16 07:39:26;;;;;;;38.40;21.70;;;;;;;2.41;86.12;101776.28;5033022;28;20043;-74
2020/12/16 07:41:54;;;;;;;32.73;18.43;;;;;;;2.45;85.82;101774.91;5049341;28;20111;-72
2020/12/16 07:44:20;;;;;;;33.30;19.57;;;;;;;2.57;86.28;101772.59;5069682;28;20031;-73
2020/12/16 07:46:45;;;;;;;37.70;21.03;;;;;;;2.63;85.56;101778.25;5076112;28;20024;-73
2020/12/16 07:49:12;;;;;;;32.37;19.87;;;;;;;2.74;85.66;101775.00;5080993;28;20102;-74
2020/12/16 07:51:38;;;;;;;35.97;22.07;;;;;;;2.82;85.67;101774.81;5069775;28;20025;-72
2020/12/16 07:54:04;;;;;;;32.10;19.77;;;;;;;2.88;84.96;101777.91;5072304;28;20089;-72
2020/12/16 07:56:29;;;;;;;33.10;21.47;;;;;;;3.00;83.53;101773.84;5090379;28;20067;-72
2020/12/16 07:58:55;;;;;;;38.93;23.57;;;;;;;3.05;83.67;101779.38;5091542;28;20028;-74
2020/12/16 08:01:20;;;;;;;36.83;22.70;;;;;;;3.00;83.19;101781.50;5091145;28;20043;-72
2020/12/16 08:03:47;;;;;;;33.57;20.67;;;;;;;3.12;82.97;101791.03;5090997;28;20032;-72
2020/12/16 08:06:13;;;;;;;30.50;19.07;;;;;;;3.16;82.82;101782.88;5090311;28;20024;-72
2020/12/16 08:08:48;;;;;;;33.73;20.13;;;;;;;3.20;82.34;101782.38;5086171;28;20078;-72
2020/12/16 08:11:27;;;;;;;33.27;20.80;;;;;;;3.18;83.07;101768.59;5069970;28;20030;-74
2020/12/16 08:14:04;;;;;;;34.97;19.97;;;;;;;3.22;82.79;101765.56;5051593;28;20028;-74
2020/12/16 08:16:31;;;;;;;31.50;20.33;;;;;;;3.45;82.80;101792.19;5070217;28;20357;-74
2020/12/16 08:18:56;;;;;;;36.60;22.20;;;;;;;3.56;82.56;101799.13;5053871;28;20115;-74
2020/12/16 08:21:23;;;;;;;34.67;21.13;;;;;;;3.48;82.01;101797.56;5090863;28;20116;-74
2020/12/16 08:23:50;;;;;;;35.00;19.85;;;;;;;3.60;81.94;101805.38;5090960;28;20398;-74
2020/12/16 08:26:20;;;;;;;34.80;20.73;;;;;;;3.24;81.50;101726.63;5091120;28;20082;-74
2020/12/16 08:28:46;;;;;;;36.13;21.43;;;;;;;3.51;81.80;101795.28;5076205;28;20038;-74
2020/12/16 08:31:12;;;;;;;33.53;20.52;;;;;;;3.45;83.41;101798.19;5056590;28;20028;-72
2020/12/16 08:33:38;;;;;;;39.83;23.83;;;;;;;3.56;82.60;101799.13;5074307;28;20024;-74
2020/12/16 08:36:24;;;;;;;38.53;21.90;;;;;;;3.70;82.95;101801.22;5074426;28;20052;-74
2020/12/16 08:38:51;;;;;;;32.17;20.35;;;;;;;3.61;81.72;101766.31;5074648;28;20043;-74
2020/12/16 08:41:29;;;;;;;36.45;20.67;;;;;;;3.71;82.38;101803.00;5072936;28;20039;-74
2020/12/16 08:43:55;;;;;;;36.72;20.92;;;;;;;3.42;83.00;101735.78;5073943;28;20029;-74
2020/12/16 08:46:25;;;;;;;41.47;20.75;;;;;;;3.82;82.28;101786.03;5055839;28;20475;-74
2020/12/16 08:48:53;;;;;;;;;;;;;;;3.95;82.25;101794.72;5074685;28;20090;-74
2020/12/16 08:51:22;;;;;;;31.60;19.05;;;;;;;3.99;81.69;101800.25;5073829;28;19962;-74
2020/12/16 08:53:55;;;;;;;34.25;19.48;;;;;;;3.98;81.70;101795.00;5073833;28;20393;-74
2020/12/16 08:56:45;;;;;;;33.25;18.35;;;;;;;3.72;82.72;101781.78;5073957;28;20032;-74
2020/12/16 08:59:18;;;;;;;32.35;18.77;;;;;;;3.70;83.59;101788.44;5073640;28;20410;-72
2020/12/16 09:01:49;;;;;;;34.45;18.52;;;;;;;3.77;82.79;101789.84;5072866;28;20128;-74
2020/12/16 09:04:25;;;;;;;34.60;19.23;;;;;;;3.78;82.87;101775.44;5073197;28;20032;-74
2020/12/16 09:07:02;;;;;;;39.00;21.40;;;;;;;3.75;82.47;101753.09;5073345;28;20467;-73
2020/12/16 09:09:29;;;;;;;34.38;21.15;;;;;;;3.96;82.98;101768.44;5070468;28;20078;-74
2020/12/16 09:11:56;;;;;;;32.67;19.80;;;;;;;4.01;82.66;101773.16;5068821;28;20029;-74
2020/12/16 09:14:22;;;;;;;31.00;17.85;;;;;;;4.06;81.76;101768.44;5073481;28;20067;-74
2020/12/16 09:16:48;;;;;;;31.33;19.17;;;;;;;4.15;81.25;101773.41;5073314;28;20024;-73
2020/12/16 09:19:17;;;;;;;31.48;19.83;;;;;;;4.26;80.74;101772.69;5055248;28;20504;-74
2020/12/16 09:21:43;;;;;;;29.77;18.33;;;;;;;4.15;79.88;101735.06;5072512;28;20025;-74
2020/12/16 09:24:08;;;;;;;31.35;18.65;;;;;;;4.26;79.96;101770.13;5071485;28;20027;-74
2020/12/16 09:26:42;;;;;;;27.40;17.38;;;;;;;4.32;80.74;101775.72;5052232;28;20116;-74
2020/12/16 09:29:19;;;;;;;26.90;18.50;;;;;;;4.42;80.35;101776.50;5029073;28;20041;-74
2020/12/16 09:31:46;;;;;;;30.15;19.73;;;;;;;4.19;80.05;101739.69;5027057;28;20045;-74
2020/12/16 09:34:11;;;;;;;31.08;19.30;;;;;;;4.34;81.13;101757.97;5042764;28;20040;-74
2020/12/16 09:36:37;;;;;;;35.50;21.15;;;;;;;4.50;80.45;101766.13;5028138;28;20204;-73
2020/12/16 09:39:05;;;;;;;28.27;19.42;;;;;;;4.54;80.30;101763.03;5027601;28;20061;-73
2020/12/16 09:41:50;;;;;;;32.80;19.27;;;;;;;4.64;79.58;101757.03;5027946;28;20184;-73
2020/12/16 09:44:30;;;;;;;33.50;21.92;;;;;;;4.67;79.87;101747.06;5029171;28;20044;-73
2020/12/16 09:47:15;;;;;;;31.05;19.73;;;;;;;4.75;79.62;101751.88;5029377;28;20112;-73
2020/12/16 09:49:42;;;;;;;33.83;21.67;;;;;;;4.86;79.36;101758.78;5030253;28;20766;-75
2020/12/16 09:52:27;;;;;;;37.53;21.58;;;;;;;4.66;78.70;101717.13;5029416;28;20043;-78
2020/12/16 09:54:52;;;;;;;30.52;19.15;;;;;;;4.67;78.75;101747.06;5028820;28;20049;-74
2020/12/16 09:57:22;;;;;;;30.85;19.77;;;;;;;4.56;78.45;101712.03;5029396;28;20033;-73
2020/12/16 09:59:48;;;;;;;32.88;19.80;;;;;;;4.60;78.50;101718.28;5044389;28;20098;-73
2020/12/16 10:02:16;;;;;;;34.28;20.23;;;;;;;4.73;79.20;101749.19;5072309;28;20036;-73
2020/12/16 10:04:41;;;;;;;31.13;19.77;;;;;;;4.73;80.10;101744.09;5071910;28;20722;-74
2020/12/16 10:07:07;;;;;;;31.38;20.65;;;;;;;4.65;79.95;101740.03;5067874;28;20086;-74
2020/12/16 10:09:35;;;;;;;29.85;18.95;;;;;;;4.69;80.00;101744.63;5072577;28;20024;-74
2020/12/16 10:12:03;;;;;;;30.95;19.15;;;;;;;4.68;79.93;101741.16;5071843;28;20109;-73
2020/12/16 10:14:29;;;;;;;30.42;18.85;;;;;;;4.77;79.99;101740.13;5072982;28;20028;-73
2020/12/16 10:16:54;;;;;;;31.13;20.10;;;;;;;4.82;79.96;101738.81;5071504;28;20024;-73
2020/12/16 10:19:20;;;;;;;31.17;20.02;;;;;;;4.92;80.07;101743.00;5071188;28;20048;-73
2020/12/16 10:21:47;;;;;;;32.38;20.05;;;;;;;4.96;78.74;101739.91;5071351;28;20078;-73
2020/12/16 10:24:13;;;;;;;31.25;21.63;;;;;;;5.02;78.43;101737.84;5070559;28;20033;-73
2020/12/16 10:26:38;;;;;;;32.35;19.48;;;;;;;4.97;78.21;101734.94;5071711;28;20035;-73
2020/12/16 10:29:04;;;;;;;28.05;18.45;;;;;;;4.82;79.12;101720.91;5073323;28;20036;-73
2020/12/16 10:31:29;;;;;;;28.05;18.25;;;;;;;4.80;79.73;101736.16;5072253;28;20050;-74
2020/12/16 10:33:55;;;;;;;29.98;18.63;;;;;;;4.75;80.76;101726.28;5072152;28;20652;-73
2020/12/16 10:36:20;;;;;;;33.90;20.17;;;;;;;4.88;80.61;101726.50;5072160;28;20109;-73
2020/12/16 10:38:46;;;;;;;28.38;18.15;;;;;;;4.99;79.59;101719.72;5072567;28;20429;-73
2020/12/16 10:41:12;;;;;;;29.80;19.38;;;;;;;5.09;79.47;101721.34;5072048;28;20025;-73
2020/12/16 10:43:38;;;;;;;30.42;19.45;;;;;;;5.08;79.82;101717.84;5071294;28;20474;-74
2020/12/16 10:46:07;;;;;;;28.65;19.77;;;;;;;5.11;79.80;101717.22;5070765;28;20402;-74
2020/12/16 10:48:32;;;;;;;30.95;19.20;;;;;;;4.97;80.23;101704.25;5071964;28;20403;-73
2020/12/16 10:50:59;;;;;;;29.45;18.58;;;;;;;4.57;79.96;101626.84;5071212;28;20029;-75
2020/12/16 10:53:25;;;;;;;29.42;19.75;;;;;;;5.09;79.23;101705.97;5070703;28;20026;-73
2020/12/16 10:55:52;;;;;;;30.77;19.58;;;;;;;5.10;79.50;101702.66;5070984;28;20536;-73
2020/12/16 10:58:18;;;;;;;31.15;20.63;;;;;;;5.16;79.06;101698.00;5070820;28;20025;-74
2020/12/16 11:00:43;;;;;;;32.33;21.25;;;;;;;5.21;79.35;101688.13;5070254;28;20025;-74
2020/12/16 11:03:09;;;;;;;31.42;20.17;;;;;;;5.02;79.16;101651.75;5070715;28;20031;-73
2020/12/16 11:05:35;;;;;;;32.00;21.38;;;;;;;5.07;79.46;101653.75;5070383;28;20031;-73
2020/12/16 11:08:01;;;;;;;30.30;20.08;;;;;;;5.34;79.69;101686.63;5071438;28;20048;-74
2020/12/16 11:10:26;;;;;;;30.80;20.33;;;;;;;5.37;79.34;101683.44;5072057;28;20521;-73
2020/12/16 11:12:52;;;;;;;30.60;19.35;;;;;;;5.45;78.61;101674.66;5072034;28;20398;-73
2020/12/16 11:15:17;;;;;;;34.42;19.90;;;;;;;5.35;78.89;101687.53;5071700;28;20028;-73
2020/12/16 11:17:42;;;;;;;31.00;20.10;;;;;;;5.07;79.63;101659.78;5070186;28;20032;-73
2020/12/16 11:20:08;;;;;;;29.15;19.20;;;;;;;5.30;79.34;101679.47;5070826;28;20029;-73
2020/12/16 11:22:37;;;;;;;28.77;19.67;;;;;;;5.33;79.04;101679.75;5071212;28;20063;-74